createdAt,value
2019-02-12T00:01:34.243Z,2.40
2019-02-12T00:04:04.815Z,2.34
2019-02-12T00:06:35.599Z,2.32
2019-02-12T00:09:05.406Z,2.26
2019-02-12T00:11:35.824Z,2.23
2019-02-12T00:14:06.253Z,2.25
2019-02-12T00:16:35.997Z,2.18
2019-02-12T00:19:05.827Z,2.20
2019-02-12T00:21:35.684Z,2.21
2019-02-12T00:24:06.268Z,2.20
2019-02-12T00:26:36.129Z,2.23
2019-02-12T00:29:05.676Z,2.19
2019-02-12T00:31:37.191Z,2.21
2019-02-12T00:34:07.054Z,2.24
2019-02-12T00:36:36.556Z,2.22
2019-02-12T00:39:06.495Z,2.26
2019-02-12T00:41:36.897Z,2.30
2019-02-12T00:44:07.628Z,2.34
2019-02-12T00:46:40.299Z,2.38
2019-02-12T00:49:10.958Z,2.48
2019-02-12T00:51:42.240Z,2.59
2019-02-12T00:54:14.355Z,2.64
2019-02-12T00:56:45.628Z,2.61
2019-02-12T00:59:14.703Z,2.73
2019-02-12T01:01:44.993Z,2.71
2019-02-12T01:04:15.565Z,2.77
2019-02-12T01:06:46.992Z,2.77
2019-02-12T01:09:16.046Z,2.78
2019-02-12T01:11:46.636Z,2.78
2019-02-12T01:14:18.739Z,2.79
2019-02-12T01:16:49.517Z,2.81
2019-02-12T01:19:19.310Z,2.88
2019-02-12T01:21:49.726Z,2.90
2019-02-12T01:24:18.791Z,2.89
2019-02-12T01:26:47.868Z,2.95
2019-02-12T01:29:16.602Z,2.95
2019-02-12T01:31:46.989Z,2.92
2019-02-12T01:34:16.749Z,3.00
2019-02-12T01:36:47.175Z,3.01
2019-02-12T01:39:16.273Z,3.00
2019-02-12T01:41:46.929Z,3.01
2019-02-12T01:44:17.269Z,3.05
2019-02-12T01:46:48.162Z,3.05
2019-02-12T01:49:18.700Z,3.13
2019-02-12T01:51:50.234Z,3.13
2019-02-12T01:54:21.042Z,3.09
2019-02-12T01:56:51.821Z,3.16
2019-02-12T01:59:23.149Z,3.20
2019-02-12T02:01:52.829Z,3.25
2019-02-12T02:04:23.277Z,3.23
2019-02-12T02:06:52.219Z,3.24
2019-02-12T02:09:20.478Z,3.28
2019-02-12T02:11:49.565Z,3.29
2019-02-12T02:14:17.812Z,3.30
2019-02-12T02:16:47.889Z,3.34
2019-02-12T02:19:19.217Z,3.34
2019-02-12T02:21:50.644Z,3.31
2019-02-12T02:24:19.967Z,3.37
2019-02-12T02:26:49.690Z,3.39
2019-02-12T02:29:20.403Z,3.33
2019-02-12T02:31:51.765Z,3.28
2019-02-12T02:34:22.987Z,3.32
2019-02-12T02:36:53.804Z,3.30
2019-02-12T02:39:24.167Z,3.32
2019-02-12T02:41:54.958Z,3.33
2019-02-12T02:44:24.638Z,3.29
2019-02-12T02:46:54.551Z,3.27
2019-02-12T02:49:24.937Z,3.25
2019-02-12T02:51:56.849Z,3.31
2019-02-12T02:54:26.466Z,3.33
2019-02-12T02:56:57.804Z,3.28
2019-02-12T02:59:28.141Z,3.26
2019-02-12T03:01:58.806Z,3.28
2019-02-12T03:04:29.156Z,3.20
2019-02-12T03:06:58.871Z,3.23
2019-02-12T03:09:31.205Z,3.26
2019-02-12T03:12:02.023Z,3.21
2019-02-12T03:14:31.715Z,3.21
2019-02-12T03:17:04.530Z,3.25
2019-02-12T03:19:34.949Z,3.24
2019-02-12T03:22:04.429Z,3.23
2019-02-12T03:24:35.678Z,3.23
2019-02-12T03:27:05.645Z,3.22
2019-02-12T03:29:36.780Z,3.25
2019-02-12T03:32:06.405Z,3.25
2019-02-12T03:34:37.759Z,3.21
2019-02-12T03:37:11.692Z,3.27
2019-02-12T03:39:42.978Z,3.26
2019-02-12T03:42:12.804Z,3.29
2019-02-12T03:44:43.921Z,3.32
2019-02-12T03:47:14.578Z,3.28
2019-02-12T03:49:46.436Z,3.26
2019-02-12T03:52:15.541Z,3.29
2019-02-12T03:54:45.955Z,3.26
2019-02-12T03:57:16.529Z,3.32
2019-02-12T03:59:47.885Z,3.29
2019-02-12T04:02:18.580Z,3.31
2019-02-12T04:04:49.043Z,3.26
2019-02-12T04:07:19.790Z,3.29
2019-02-12T04:09:50.128Z,3.33
2019-02-12T04:12:22.764Z,3.34
2019-02-12T04:14:53.357Z,3.39
2019-02-12T04:17:23.144Z,3.27
2019-02-12T04:19:55.402Z,3.26
2019-02-12T04:22:26.704Z,3.23
2019-02-12T04:24:59.531Z,3.19
2019-02-12T04:27:30.862Z,3.22
2019-02-12T04:30:01.413Z,3.16
2019-02-12T04:32:32.716Z,3.21
2019-02-12T04:35:02.376Z,3.23
2019-02-12T04:37:30.914Z,3.17
2019-02-12T04:40:02.840Z,3.16
2019-02-12T04:42:33.490Z,3.22
2019-02-12T04:45:03.884Z,3.24
2019-02-12T04:47:34.446Z,3.26
2019-02-12T04:50:06.001Z,3.26
2019-02-12T04:52:35.712Z,3.27
2019-02-12T04:55:06.167Z,3.32
2019-02-12T04:57:36.606Z,3.26
2019-02-12T05:00:09.515Z,3.30
2019-02-12T05:02:40.296Z,3.30
2019-02-12T05:05:11.765Z,3.32
2019-02-12T05:07:42.187Z,3.32
2019-02-12T05:10:20.115Z,3.29
2019-02-12T05:12:50.742Z,3.27
2019-02-12T05:15:21.804Z,3.23
2019-02-12T05:17:51.518Z,3.16
2019-02-12T05:20:21.250Z,3.20
2019-02-12T05:22:52.588Z,3.06
2019-02-12T05:25:23.444Z,2.59
2019-02-12T05:27:53.419Z,2.46
2019-02-12T05:30:23.437Z,2.49
2019-02-12T05:32:54.763Z,2.45
2019-02-12T05:35:24.419Z,2.43
2019-02-12T05:37:53.497Z,2.45
2019-02-12T05:40:24.735Z,2.45
2019-02-12T05:42:55.276Z,2.49
2019-02-12T05:45:25.175Z,2.51
2019-02-12T05:47:55.508Z,2.52
2019-02-12T05:50:25.625Z,2.59
2019-02-12T05:52:55.436Z,2.64
2019-02-12T05:55:25.843Z,2.75
2019-02-12T05:57:56.591Z,2.87
2019-02-12T06:00:29.504Z,3.15
2019-02-12T06:03:00.820Z,3.17
2019-02-12T06:05:31.612Z,3.20
2019-02-12T06:08:03.392Z,3.19
2019-02-12T06:10:32.412Z,3.17
2019-02-12T06:13:03.796Z,3.15
2019-02-12T06:15:34.573Z,3.06
2019-02-12T06:18:04.468Z,2.99
2019-02-12T06:20:34.847Z,2.96
2019-02-12T06:23:05.308Z,2.96
2019-02-12T06:25:35.358Z,2.94
2019-02-12T06:28:07.407Z,2.94
2019-02-12T06:30:37.241Z,2.91
2019-02-12T06:33:08.416Z,2.96
2019-02-12T06:35:39.215Z,2.98
2019-02-12T06:38:09.579Z,2.95
2019-02-12T06:40:40.945Z,2.95
2019-02-12T06:43:12.684Z,2.95
2019-02-12T06:45:43.280Z,2.96
2019-02-12T06:48:13.167Z,2.99
2019-02-12T06:50:44.545Z,2.99
2019-02-12T06:53:14.172Z,3.00
2019-02-12T06:55:44.529Z,2.99
2019-02-12T06:58:13.792Z,3.00
2019-02-12T07:00:44.228Z,2.99
2019-02-12T07:03:17.266Z,3.00
2019-02-12T07:06:01.429Z,3.04
2019-02-12T07:08:45.809Z,3.01
2019-02-12T07:11:44.609Z,3.02
2019-02-12T07:14:19.972Z,3.04
2019-02-12T07:17:08.992Z,3.04
2019-02-12T07:19:45.004Z,3.09
2019-02-12T07:22:42.289Z,3.03
2019-02-12T07:25:43.905Z,3.02
2019-02-12T07:28:24.480Z,3.07
2019-02-12T07:31:15.984Z,3.05
2019-02-12T07:34:14.882Z,3.10
2019-02-12T07:37:06.147Z,3.09
2019-02-12T07:39:41.035Z,3.08
2019-02-12T07:42:41.953Z,3.07
2019-02-12T07:45:30.210Z,3.19
2019-02-12T07:48:21.390Z,3.22
2019-02-12T07:51:29.250Z,3.25
2019-02-12T07:54:05.388Z,3.27
2019-02-12T07:56:43.405Z,3.19
2019-02-12T07:59:24.610Z,3.31
2019-02-12T08:02:12.836Z,3.20
2019-02-12T08:05:05.556Z,3.25
2019-02-12T08:08:10.956Z,3.33
2019-02-12T08:10:46.190Z,3.39
2019-02-12T08:13:37.580Z,3.42
2019-02-12T08:16:39.919Z,3.20
2019-02-12T08:19:30.108Z,3.11
2019-02-12T08:22:11.407Z,2.93
2019-02-12T08:24:42.939Z,2.83
2019-02-12T08:27:15.241Z,2.65
2019-02-12T08:29:55.884Z,2.61
2019-02-12T08:32:34.656Z,2.71
2019-02-12T08:35:30.254Z,2.64
2019-02-12T08:38:23.179Z,2.77
2019-02-12T08:41:17.427Z,2.89
2019-02-12T08:43:55.569Z,3.14
2019-02-12T08:46:55.581Z,3.58
2019-02-12T08:49:47.306Z,5.20
2019-02-12T08:52:34.204Z,6.18
2019-02-12T08:55:09.027Z,5.92
2019-02-12T08:58:01.027Z,6.93
2019-02-12T09:00:47.959Z,6.33
2019-02-12T09:03:37.412Z,5.33
2019-02-12T09:06:08.915Z,5.13
2019-02-12T09:09:00.059Z,4.79
2019-02-12T09:11:53.126Z,4.79
2019-02-12T09:14:26.380Z,4.56
2019-02-12T09:17:04.363Z,4.55
2019-02-12T09:19:53.873Z,4.56
2019-02-12T09:22:32.046Z,4.57
2019-02-12T09:25:07.370Z,4.74
2019-02-12T09:27:49.618Z,4.71
2019-02-12T09:30:34.016Z,4.85
2019-02-12T09:33:17.891Z,4.94
2019-02-12T09:36:03.907Z,5.00
2019-02-12T09:38:51.171Z,5.09
2019-02-12T09:41:27.375Z,5.02
2019-02-12T09:44:02.523Z,4.86
2019-02-12T09:46:38.765Z,4.68
2019-02-12T09:49:13.987Z,5.00
2019-02-12T09:51:49.209Z,4.95
2019-02-12T09:54:25.395Z,4.84
2019-02-12T09:56:58.690Z,4.71
2019-02-12T09:59:33.242Z,4.69
2019-02-12T10:02:18.444Z,5.13
2019-02-12T10:04:57.347Z,5.54
2019-02-12T10:07:35.581Z,5.64
2019-02-12T10:10:11.726Z,5.45
2019-02-12T10:12:47.099Z,5.22
2019-02-12T10:15:27.751Z,5.29
2019-02-12T10:18:01.061Z,5.29
2019-02-12T10:20:40.355Z,5.41
2019-02-12T10:23:15.189Z,5.47
2019-02-12T10:25:46.316Z,5.48
2019-02-12T10:28:29.787Z,5.33
2019-02-12T10:31:05.266Z,5.15
2019-02-12T10:33:35.132Z,5.57
2019-02-12T10:36:03.389Z,5.59
2019-02-12T10:38:36.060Z,5.40
2019-02-12T10:41:06.829Z,5.16
2019-02-12T10:43:37.251Z,5.19
2019-02-12T10:46:09.438Z,5.50
2019-02-12T10:48:39.074Z,5.51
2019-02-12T10:51:10.283Z,5.56
2019-02-12T10:53:41.535Z,5.79
2019-02-12T10:56:12.177Z,5.75
2019-02-12T10:58:42.955Z,5.60
2019-02-12T11:01:12.031Z,5.33
2019-02-12T11:03:41.119Z,5.29
2019-02-12T11:06:12.508Z,5.30
2019-02-12T11:08:43.329Z,5.38
2019-02-12T11:11:16.112Z,5.31
2019-02-12T11:13:45.237Z,5.38
2019-02-12T11:16:14.845Z,5.59
2019-02-12T11:18:43.906Z,5.45
2019-02-12T11:21:14.182Z,5.40
2019-02-12T11:23:45.614Z,5.36
2019-02-12T11:26:16.182Z,5.24
2019-02-12T11:28:47.307Z,5.24
2019-02-12T11:31:20.049Z,5.21
2019-02-12T11:33:51.428Z,5.06
2019-02-12T11:36:21.324Z,5.14
2019-02-12T11:38:53.152Z,5.19
2019-02-12T11:41:23.724Z,5.08
2019-02-12T11:43:55.028Z,5.22
2019-02-12T11:46:25.466Z,5.38
2019-02-12T11:48:56.114Z,5.36
2019-02-12T11:51:26.637Z,5.48
2019-02-12T11:53:57.052Z,5.46
2019-02-12T11:56:27.377Z,5.26
2019-02-12T11:58:57.983Z,5.48
2019-02-12T12:01:29.777Z,5.69
2019-02-12T12:04:01.804Z,5.75
2019-02-12T12:06:35.023Z,5.48
2019-02-12T12:09:06.636Z,5.41
2019-02-12T12:11:37.967Z,5.37
2019-02-12T12:14:07.726Z,5.31
2019-02-12T12:16:37.876Z,5.31
2019-02-12T12:19:09.230Z,5.49
2019-02-12T12:21:39.788Z,5.47
2019-02-12T12:24:11.115Z,5.44
2019-02-12T12:26:41.510Z,5.53
2019-02-12T12:29:13.899Z,5.51
2019-02-12T12:31:44.712Z,5.33
2019-02-12T12:34:14.806Z,5.21
2019-02-12T12:36:45.133Z,5.19
2019-02-12T12:39:15.748Z,5.32
2019-02-12T12:41:45.761Z,5.48
2019-02-12T12:44:15.821Z,5.39
2019-02-12T12:46:46.107Z,5.32
2019-02-12T12:49:15.766Z,5.32
2019-02-12T12:51:47.022Z,5.25
2019-02-12T12:54:18.483Z,5.24
2019-02-12T12:56:48.903Z,5.04
2019-02-12T12:59:19.341Z,5.14
2019-02-12T13:01:48.990Z,5.27
2019-02-12T13:04:19.340Z,5.21
2019-02-12T13:06:49.924Z,5.22
2019-02-12T13:09:20.353Z,5.25
2019-02-12T13:11:50.033Z,5.12
2019-02-12T13:14:20.812Z,4.98
2019-02-12T13:16:52.946Z,4.94
2019-02-12T13:19:22.865Z,5.28
2019-02-12T13:21:51.146Z,5.54
2019-02-12T13:24:19.695Z,5.75
2019-02-12T13:26:47.960Z,5.69
2019-02-12T13:29:17.029Z,5.58
2019-02-12T13:31:46.525Z,5.56
2019-02-12T13:34:15.585Z,5.62
2019-02-12T13:36:43.876Z,5.65
2019-02-12T13:39:12.139Z,5.42
2019-02-12T13:41:41.264Z,5.19
2019-02-12T13:44:10.280Z,5.06
2019-02-12T13:46:38.804Z,4.94
2019-02-12T13:49:10.225Z,5.03
2019-02-12T13:51:40.900Z,4.99
2019-02-12T13:54:10.773Z,5.07
2019-02-12T13:56:42.125Z,5.33
2019-02-12T13:59:12.946Z,5.24
2019-02-12T14:01:43.603Z,5.12
2019-02-12T14:04:13.893Z,5.07
2019-02-12T14:06:43.919Z,5.01
2019-02-12T14:09:15.979Z,5.01
2019-02-12T14:11:45.824Z,5.18
2019-02-12T14:14:15.275Z,5.22
2019-02-12T14:16:44.326Z,5.32
2019-02-12T14:19:13.422Z,5.37
2019-02-12T14:21:44.780Z,5.14
2019-02-12T14:24:16.163Z,4.87
2019-02-12T14:26:46.925Z,4.90
2019-02-12T14:29:15.517Z,4.86
2019-02-12T14:31:52.742Z,4.99
2019-02-12T14:34:18.957Z,4.99
2019-02-12T14:36:48.708Z,4.97
2019-02-12T14:39:20.172Z,4.86
2019-02-12T14:41:50.770Z,4.86
2019-02-12T14:44:21.166Z,4.93
2019-02-12T14:46:51.009Z,4.95
2019-02-12T14:49:20.609Z,4.87
2019-02-12T14:51:51.980Z,4.88
2019-02-12T14:54:24.086Z,4.85
2019-02-12T14:56:56.259Z,4.80
2019-02-12T14:59:26.901Z,4.85
2019-02-12T15:01:56.560Z,4.82
2019-02-12T15:04:26.332Z,4.72
2019-02-12T15:06:57.608Z,4.68
2019-02-12T15:09:28.940Z,4.80
2019-02-12T15:12:00.223Z,4.71
2019-02-12T15:14:30.044Z,4.73
2019-02-12T15:17:00.715Z,4.73
2019-02-12T15:19:32.043Z,4.73
2019-02-12T15:22:02.886Z,4.78
2019-02-12T15:24:32.507Z,4.78
2019-02-12T15:27:01.566Z,4.69
2019-02-12T15:29:32.881Z,4.56
2019-02-12T15:32:03.096Z,4.52
2019-02-12T15:34:34.420Z,4.52
2019-02-12T15:37:05.026Z,4.56
2019-02-12T15:39:37.931Z,4.58
2019-02-12T15:42:08.431Z,4.44
2019-02-12T15:44:38.140Z,4.48
2019-02-12T15:47:10.897Z,4.42
2019-02-12T15:49:41.459Z,4.53
2019-02-12T15:52:15.572Z,4.52
2019-02-12T15:54:46.897Z,4.46
2019-02-12T15:57:18.252Z,4.45
2019-02-12T15:59:48.113Z,4.45
2019-02-12T16:02:18.922Z,4.42
2019-02-12T16:04:50.214Z,4.39
2019-02-12T16:07:22.320Z,4.37
2019-02-12T16:09:54.954Z,4.35
2019-02-12T16:12:28.367Z,4.38
2019-02-12T16:14:59.763Z,4.35
2019-02-12T16:17:31.561Z,4.28
2019-02-12T16:20:01.397Z,4.31
2019-02-12T16:22:32.754Z,4.20
2019-02-12T16:25:02.561Z,4.21
2019-02-12T16:27:31.612Z,4.19
2019-02-12T16:30:01.142Z,4.23
2019-02-12T16:32:30.468Z,4.24
2019-02-12T16:34:59.021Z,4.16
2019-02-12T16:37:28.812Z,4.22
2019-02-12T16:39:59.504Z,4.12
2019-02-12T16:42:29.927Z,4.15
2019-02-12T16:44:59.552Z,4.17
2019-02-12T16:47:31.084Z,4.14
2019-02-12T16:50:00.236Z,4.11
2019-02-12T16:52:30.626Z,4.06
2019-02-12T16:55:01.009Z,4.06
2019-02-12T16:57:31.790Z,4.13
2019-02-12T17:00:01.466Z,4.13
2019-02-12T17:02:30.690Z,4.09
2019-02-12T17:04:59.793Z,4.04
2019-02-12T17:07:28.738Z,4.10
2019-02-12T17:09:57.067Z,4.12
2019-02-12T17:12:26.908Z,4.11
2019-02-12T17:14:57.655Z,4.14
2019-02-12T17:17:26.775Z,4.07
2019-02-12T17:19:58.171Z,4.16
2019-02-12T17:22:28.817Z,4.08
2019-02-12T17:25:00.340Z,4.08
2019-02-12T17:27:31.695Z,4.04
2019-02-12T17:30:02.225Z,4.04
2019-02-12T17:32:33.581Z,4.06
2019-02-12T17:35:04.172Z,4.08
2019-02-12T17:37:34.518Z,4.09
2019-02-12T17:40:04.263Z,4.09
2019-02-12T17:42:33.317Z,4.09
2019-02-12T17:45:06.636Z,4.10
2019-02-12T17:47:39.280Z,4.10
2019-02-12T17:50:11.691Z,4.09
2019-02-12T17:52:43.012Z,4.05
2019-02-12T17:55:12.358Z,4.09
2019-02-12T17:57:43.693Z,4.09
2019-02-12T18:00:23.055Z,4.10
2019-02-12T18:02:54.388Z,4.17
2019-02-12T18:05:27.084Z,4.12
2019-02-12T18:07:57.518Z,4.12
2019-02-12T18:10:27.847Z,4.07
2019-02-12T18:12:59.181Z,4.11
2019-02-12T18:15:30.546Z,4.06
2019-02-12T18:18:01.873Z,4.05
2019-02-12T18:20:34.197Z,4.04
2019-02-12T18:23:05.626Z,4.05
2019-02-12T18:25:35.358Z,4.04
2019-02-12T18:28:08.723Z,4.05
2019-02-12T18:30:39.502Z,4.09
2019-02-12T18:33:10.749Z,4.07
2019-02-12T18:35:41.617Z,4.07
2019-02-12T18:38:11.249Z,4.11
2019-02-12T18:40:41.576Z,4.06
2019-02-12T18:43:12.145Z,4.06
2019-02-12T18:45:43.599Z,4.03
2019-02-12T18:48:14.850Z,4.03
2019-02-12T18:50:45.442Z,3.99
2019-02-12T18:53:16.268Z,4.02
2019-02-12T18:55:46.290Z,4.05
2019-02-12T18:58:17.612Z,4.04
2019-02-12T19:00:50.829Z,4.00
2019-02-12T19:03:22.731Z,4.03
2019-02-12T19:05:52.585Z,4.11
2019-02-12T19:08:20.852Z,4.11
2019-02-12T19:10:50.155Z,4.07
2019-02-12T19:13:20.543Z,4.05
2019-02-12T19:15:50.236Z,4.09
2019-02-12T19:18:22.448Z,4.07
2019-02-12T19:20:52.129Z,4.09
2019-02-12T19:23:22.580Z,4.05
2019-02-12T19:25:54.064Z,4.07
2019-02-12T19:28:25.334Z,4.14
2019-02-12T19:30:58.413Z,4.14
2019-02-12T19:33:29.766Z,4.19
2019-02-12T19:35:59.421Z,4.29
2019-02-12T19:38:30.636Z,4.28
2019-02-12T19:41:00.339Z,4.28
2019-02-12T19:43:33.548Z,4.33
2019-02-12T19:46:03.785Z,4.18
2019-02-12T19:48:34.640Z,4.09
2019-02-12T19:51:05.311Z,4.06
2019-02-12T19:53:36.636Z,4.05
2019-02-12T19:56:07.890Z,3.93
2019-02-12T19:58:38.477Z,3.83
2019-02-12T20:01:08.560Z,3.77
2019-02-12T20:03:39.377Z,3.75
2019-02-12T20:06:10.733Z,3.69
2019-02-12T20:08:43.696Z,3.71
2019-02-12T20:11:13.622Z,3.75
2019-02-12T20:13:44.176Z,3.78
2019-02-12T20:16:14.048Z,3.82
2019-02-12T20:18:45.459Z,3.87
2019-02-12T20:21:15.873Z,3.89
2019-02-12T20:23:46.640Z,3.86
2019-02-12T20:26:17.892Z,3.92
2019-02-12T20:28:49.228Z,3.96
2019-02-12T20:31:19.523Z,4.00
2019-02-12T20:33:48.606Z,3.99
2019-02-12T20:36:18.428Z,4.02
2019-02-12T20:38:46.696Z,4.07
2019-02-12T20:41:14.948Z,4.03
2019-02-12T20:43:43.244Z,4.01
2019-02-12T20:46:12.348Z,4.00
2019-02-12T20:48:43.123Z,3.97
2019-02-12T20:51:13.457Z,3.95
2019-02-12T20:53:45.704Z,3.97
2019-02-12T20:56:15.529Z,3.97
2019-02-12T20:58:45.373Z,3.96
2019-02-12T21:01:15.025Z,3.96
2019-02-12T21:03:45.343Z,4.00
2019-02-12T21:06:15.714Z,3.99
2019-02-12T21:08:45.568Z,3.94
2019-02-12T21:11:16.140Z,4.00
2019-02-12T21:13:46.157Z,4.00
2019-02-12T21:16:16.541Z,4.00
2019-02-12T21:18:47.239Z,4.01
2019-02-12T21:21:17.499Z,3.97
2019-02-12T21:23:47.324Z,3.95
2019-02-12T21:26:17.678Z,3.93
2019-02-12T21:28:47.382Z,3.93
2019-02-12T21:31:18.155Z,3.97
2019-02-12T21:33:48.178Z,3.93
2019-02-12T21:36:18.926Z,3.96
2019-02-12T21:38:49.357Z,3.91
2019-02-12T21:41:19.343Z,3.89
2019-02-12T21:43:49.183Z,3.93
2019-02-12T21:46:22.411Z,3.93
2019-02-12T21:48:53.807Z,3.91
2019-02-12T21:51:25.102Z,3.91
2019-02-12T21:53:58.350Z,3.94
2019-02-12T21:56:28.157Z,3.88
2019-02-12T21:58:56.397Z,3.93
2019-02-12T22:01:25.473Z,3.94
2019-02-12T22:03:53.720Z,3.92
2019-02-12T22:06:23.852Z,3.91
2019-02-12T22:08:54.238Z,3.95
2019-02-12T22:11:24.642Z,3.89
2019-02-12T22:13:55.405Z,3.96
2019-02-12T22:16:26.207Z,3.95
2019-02-12T22:18:55.267Z,3.98
2019-02-12T22:21:26.089Z,3.97
2019-02-12T22:23:56.914Z,3.92
2019-02-12T22:26:25.995Z,3.88
2019-02-12T22:28:55.025Z,3.90
2019-02-12T22:31:25.492Z,3.83
2019-02-12T22:33:55.201Z,3.87
2019-02-12T22:36:26.551Z,3.71
2019-02-12T22:38:57.103Z,3.73
2019-02-12T22:41:26.806Z,3.72
2019-02-12T22:43:55.054Z,3.68
2019-02-12T22:46:27.252Z,3.67
2019-02-12T22:48:58.499Z,3.62
2019-02-12T22:51:29.295Z,3.65
2019-02-12T22:53:59.111Z,3.65
2019-02-12T22:56:30.354Z,3.68
2019-02-12T22:59:00.685Z,3.68
2019-02-12T23:01:38.057Z,3.67
2019-02-12T23:04:09.390Z,3.67
2019-02-12T23:06:41.278Z,3.74
2019-02-12T23:09:12.035Z,3.67
2019-02-12T23:11:43.451Z,3.71
2019-02-12T23:14:14.284Z,3.66
2019-02-12T23:16:43.941Z,3.51
2019-02-12T23:19:12.995Z,3.54
2019-02-12T23:21:44.244Z,3.58
2019-02-12T23:24:14.621Z,3.63
2019-02-12T23:26:45.966Z,3.61
2019-02-12T23:29:16.549Z,3.59
2019-02-12T23:31:47.442Z,3.58
2019-02-12T23:34:18.224Z,3.60
2019-02-12T23:36:48.814Z,3.52
2019-02-12T23:39:18.576Z,3.57
2019-02-12T23:41:49.268Z,3.52
2019-02-12T23:44:19.077Z,3.55
2019-02-12T23:46:48.738Z,3.58
2019-02-12T23:49:20.183Z,3.57
2019-02-12T23:51:49.866Z,3.63
2019-02-12T23:54:21.232Z,3.62
2019-02-12T23:56:55.352Z,3.67
2019-02-12T23:59:27.766Z,3.64
